Time;durP1;ratioP1;P1;durP2;ratioP2;P2;SDS_P1;SDS_P2;PMS_P1;PMS_P2;Temp;Humidity;BMP_temperature;BMP_pressure;BME280_temperature;BME280_humidity;BME280_pressure;Samples;Min_cycle;Max_cycle;Signal;HPM_P1;HPM_P2
2022/08/17 00:00:56;;;;;;;7.10;6.50;;;17.80;99.90;;;;;;4953823;28;20516;-73
2022/08/17 00:03:24;;;;;;;8.37;6.60;;;17.80;99.90;;;;;;4953388;28;20431;-72
2022/08/17 00:05:54;;;;;;;8.13;6.77;;;17.70;99.90;;;;;;4954007;28;20527;-73
2022/08/17 00:08:23;;;;;;;9.23;6.73;;;17.70;99.90;;;;;;4954761;28;20428;-72
2022/08/17 00:10:50;;;;;;;7.00;6.40;;;17.70;99.90;;;;;;4953597;28;20472;-72
2022/08/17 00:13:24;;;;;;;9.57;7.60;;;17.60;99.90;;;;;;4954425;28;20419;-72
2022/08/17 00:15:50;;;;;;;9.63;6.80;;;17.60;99.90;;;;;;4954330;28;20420;-72
2022/08/17 00:18:16;;;;;;;7.30;6.43;;;17.60;99.90;;;;;;4954651;28;20416;-72
2022/08/17 00:20:42;;;;;;;13.23;6.30;;;17.60;99.90;;;;;;4953587;28;20417;-72
2022/08/17 00:23:14;;;;;;;7.80;7.10;;;17.60;99.90;;;;;;4954265;28;20165;-72
2022/08/17 00:25:45;;;;;;;7.20;6.50;;;17.60;99.90;;;;;;4954611;28;20175;-72
2022/08/17 00:28:13;;;;;;;7.27;6.67;;;17.60;99.90;;;;;;4952651;29;20453;-72
2022/08/17 00:30:39;;;;;;;7.83;6.70;;;17.50;99.90;;;;;;4953364;28;20743;-70
2022/08/17 00:33:11;;;;;;;7.43;6.80;;;17.40;99.90;;;;;;4953896;28;20435;-72
2022/08/17 00:35:38;;;;;;;7.60;6.70;;;17.50;99.90;;;;;;4954193;28;20180;-72
2022/08/17 00:38:08;;;;;;;8.17;7.37;;;17.40;99.90;;;;;;4953950;28;20931;-72
2022/08/17 00:40:36;;;;;;;7.30;6.70;;;17.40;99.90;;;;;;4953361;28;20416;-71
2022/08/17 00:43:13;;;;;;;8.83;7.70;;;17.40;99.90;;;;;;4953279;28;20785;-70
2022/08/17 00:45:39;;;;;;;11.50;7.23;;;17.30;99.90;;;;;;4953325;28;20770;-73
2022/08/17 00:48:04;;;;;;;7.73;6.80;;;17.30;99.90;;;;;;4953658;28;20417;-71
2022/08/17 00:50:30;;;;;;;9.00;7.30;;;17.30;99.90;;;;;;4953441;28;20529;-72
2022/08/17 00:52:57;;;;;;;7.73;6.63;;;17.30;99.90;;;;;;4953104;28;20201;-72
2022/08/17 00:55:24;;;;;;;7.77;7.07;;;17.30;99.90;;;;;;4953848;28;20172;-72
2022/08/17 00:57:54;;;;;;;8.93;7.57;;;17.30;99.90;;;;;;4953931;28;20925;-72
2022/08/17 02:31:02;;;;;;;9.43;8.53;;;16.60;99.90;;;;;;5872908;23;20495;-69
2022/08/17 02:33:28;;;;;;;8.60;7.80;;;16.50;99.90;;;;;;4940126;29;21014;-71
2022/08/17 02:35:53;;;;;;;9.83;7.70;;;16.50;99.90;;;;;;4931308;28;20495;-70
2022/08/17 02:38:19;;;;;;;8.90;8.00;;;16.50;99.90;;;;;;4936095;29;20272;-71
2022/08/17 02:40:44;;;;;;;9.83;8.93;;;16.50;99.90;;;;;;4933993;29;20661;-69
2022/08/17 02:43:11;;;;;;;9.23;7.60;;;16.40;99.90;;;;;;4910820;29;20186;-71
2022/08/17 02:45:36;;;;;;;8.30;7.53;;;16.40;99.90;;;;;;4915961;29;20174;-71
2022/08/17 02:48:03;;;;;;;9.30;7.73;;;16.50;99.90;;;;;;4915300;29;20434;-71
2022/08/17 02:50:28;;;;;;;9.17;8.30;;;16.50;99.90;;;;;;4917086;29;20258;-71
2022/08/17 02:52:54;;;;;;;9.20;8.40;;;16.50;99.90;;;;;;4912699;29;20525;-70
2022/08/17 02:55:23;;;;;;;7.87;7.27;;;16.50;99.90;;;;;;4916824;29;20185;-71
2022/08/17 02:57:49;;;;;;;9.03;7.70;;;16.50;99.90;;;;;;4911129;29;20191;-71
2022/08/17 03:00:21;;;;;;;7.90;7.17;;;16.50;99.90;;;;;;4917186;29;20442;-71
2022/08/17 03:02:47;;;;;;;8.70;8.00;;;16.50;99.90;;;;;;4913651;29;20465;-71
2022/08/17 03:05:17;;;;;;;8.93;8.13;;;16.50;99.90;;;;;;4914876;29;20810;-71
2022/08/17 03:07:43;;;;;;;8.23;7.40;;;16.50;99.90;;;;;;4914892;29;20949;-70
2022/08/17 03:10:10;;;;;;;8.17;7.47;;;16.50;99.90;;;;;;4917110;29;20422;-71
2022/08/17 03:12:40;;;;;;;7.90;7.17;;;16.50;99.90;;;;;;4913640;29;21130;-70
2022/08/17 03:15:15;;;;;;;8.97;7.80;;;16.50;99.90;;;;;;4915699;29;20946;-71
2022/08/17 03:17:41;;;;;;;7.87;7.07;;;16.50;99.90;;;;;;4916780;29;20977;-72
2022/08/17 03:20:07;;;;;;;8.97;7.97;;;16.50;99.90;;;;;;4917384;29;20421;-71
2022/08/17 03:22:46;;;;;;;8.30;7.50;;;16.50;99.90;;;;;;4916744;29;20202;-71
2022/08/17 03:25:16;;;;;;;8.63;7.77;;;16.50;99.90;;;;;;4913443;29;20520;-71
2022/08/17 03:27:41;;;;;;;10.97;7.80;;;16.60;99.90;;;;;;4914827;29;20947;-70
2022/08/17 03:30:09;;;;;;;7.93;6.63;;;16.60;99.90;;;;;;4914428;29;20517;-71
2022/08/17 03:32:57;;;;;;;8.80;7.70;;;16.60;99.90;;;;;;4914141;29;20626;-69
2022/08/17 03:35:28;;;;;;;8.17;7.47;;;16.60;99.90;;;;;;4907675;29;20526;-71
2022/08/17 03:37:54;;;;;;;12.60;7.57;;;16.60;99.90;;;;;;4916280;29;20414;-71
2022/08/17 03:40:20;;;;;;;8.57;7.70;;;16.70;99.90;;;;;;4914570;29;20456;-71
2022/08/17 03:42:46;;;;;;;8.10;7.30;;;16.70;99.90;;;;;;4913071;29;20454;-71
2022/08/17 03:56:40;;;;;;;8.17;7.47;;;16.60;99.90;;;;;;4914520;29;20193;-72
2022/08/17 03:56:43;;;;;;;7.87;7.07;;;16.50;99.90;;;;;;4911913;29;20442;-71
2022/08/17 03:59:15;;;;;;;8.13;7.20;;;16.50;99.90;;;;;;4914244;29;20434;-71
2022/08/17 04:01:44;;;;;;;7.73;7.07;;;16.40;99.90;;;;;;4913489;29;20505;-72
2022/08/17 04:04:11;;;;;;;8.73;7.43;;;16.40;99.90;;;;;;4916368;29;20444;-71
2022/08/17 04:06:37;;;;;;;10.07;6.50;;;16.40;99.90;;;;;;4911728;29;20862;-71
2022/08/17 04:09:03;;;;;;;9.50;8.33;;;16.40;99.90;;;;;;4916069;29;20446;-71
2022/08/17 04:11:29;;;;;;;9.20;8.27;;;16.40;99.90;;;;;;4913042;29;20557;-72
2022/08/17 04:13:55;;;;;;;9.43;7.70;;;16.40;99.90;;;;;;4914042;29;20542;-71
2022/08/17 04:16:22;;;;;;;10.63;8.00;;;16.30;99.90;;;;;;4912945;29;20190;-71
2022/08/17 04:18:48;;;;;;;7.93;7.23;;;16.30;99.90;;;;;;4914727;29;21057;-71
2022/08/17 04:21:13;;;;;;;9.70;7.83;;;16.30;99.90;;;;;;4912679;29;20457;-73
2022/08/17 04:23:39;;;;;;;7.93;7.27;;;16.30;99.90;;;;;;4915836;29;20231;-73
2022/08/17 04:26:04;;;;;;;8.53;7.60;;;16.30;99.90;;;;;;4913693;29;20183;-72
2022/08/17 04:28:30;;;;;;;7.63;6.90;;;16.30;99.90;;;;;;4909423;29;20194;-72
2022/08/17 04:30:56;;;;;;;10.23;7.10;;;16.40;99.90;;;;;;4913532;29;20213;-74
2022/08/17 04:33:24;;;;;;;9.37;7.80;;;16.40;99.90;;;;;;4909698;29;20214;-73
2022/08/17 04:35:53;;;;;;;7.67;7.00;;;16.40;99.90;;;;;;4914328;29;20183;-72
2022/08/17 04:38:24;;;;;;;13.70;8.03;;;16.40;99.90;;;;;;4911731;29;20461;-73
2022/08/17 04:43:36;;;;;;;8.10;7.50;;;16.40;99.90;;;;;;4909315;29;20468;-72
2022/08/17 04:46:13;;;;;;;10.00;7.87;;;16.40;99.90;;;;;;4915633;29;20409;-73
2022/08/17 04:48:42;;;;;;;8.27;7.53;;;16.40;99.90;;;;;;4910757;29;20981;-73
2022/08/17 04:51:13;;;;;;;7.90;7.20;;;16.40;99.90;;;;;;4914183;29;20465;-73
2022/08/17 04:53:42;;;;;;;7.73;7.00;;;16.40;99.90;;;;;;4913095;29;20525;-72
2022/08/17 04:56:10;;;;;;;7.73;7.03;;;16.40;99.90;;;;;;4915154;29;20433;-73
2022/08/17 04:58:36;;;;;;;7.97;7.30;;;16.50;99.90;;;;;;4908474;29;20471;-72
2022/08/17 05:01:01;;;;;;;8.03;7.30;;;16.60;99.90;;;;;;4914334;29;20481;-73
2022/08/17 05:03:27;;;;;;;9.07;8.17;;;16.60;99.90;;;;;;4913253;29;20217;-72
2022/08/17 05:05:53;;;;;;;8.00;7.13;;;16.70;99.90;;;;;;4914348;29;20185;-72
2022/08/17 05:08:19;;;;;;;9.17;8.03;;;16.70;99.90;;;;;;4913491;29;20264;-73
2022/08/17 05:10:46;;;;;;;11.00;8.70;;;16.80;99.90;;;;;;4911970;29;20197;-73
2022/08/17 05:13:15;;;;;;;8.80;8.00;;;16.90;99.90;;;;;;4913113;29;20498;-73
2022/08/17 05:15:42;;;;;;;8.63;7.83;;;17.00;99.90;;;;;;4915027;29;20426;-72
2022/08/17 05:18:09;;;;;;;8.90;7.90;;;17.20;99.90;;;;;;4913079;29;20422;-72
2022/08/17 05:20:37;;;;;;;10.50;8.30;;;17.30;99.90;;;;;;4911330;29;20529;-70
2022/08/17 05:23:06;;;;;;;7.70;7.00;;;17.60;99.90;;;;;;4914802;29;20508;-72
2022/08/17 05:25:35;;;;;;;8.63;7.50;;;17.90;99.90;;;;;;4909630;29;20461;-72
2022/08/17 05:28:01;;;;;;;8.90;8.00;;;18.40;99.90;;;;;;4903714;29;20466;-72
2022/08/17 05:30:26;;;;;;;10.37;7.13;;;18.90;99.90;;;;;;4895297;29;20795;-72
2022/08/17 05:32:58;;;;;;;10.20;7.93;;;19.40;99.90;;;;;;4894490;29;20466;-73
2022/08/17 05:35:26;;;;;;;8.63;7.60;;;19.90;99.90;;;;;;4895895;29;20182;-72
2022/08/17 05:37:52;;;;;;;10.20;7.30;;;20.40;99.90;;;;;;4914470;29;20434;-73
2022/08/17 05:40:19;;;;;;;7.93;7.00;;;21.00;99.90;;;;;;4910968;29;20732;-72
2022/08/17 05:42:46;;;;;;;7.50;6.80;;;21.50;99.90;;;;;;4911230;29;20473;-73
2022/08/17 05:45:14;;;;;;;7.37;6.67;;;21.90;99.90;;;;;;4911887;29;20472;-72
2022/08/17 05:47:41;;;;;;;9.40;6.80;;;22.20;99.90;;;;;;4914135;29;20449;-72
2022/08/17 05:50:09;;;;;;;6.67;6.17;;;22.60;99.90;;;;;;4912371;29;20434;-72
2022/08/17 05:53:09;;;;;;;9.83;7.50;;;22.80;99.90;;;;;;4911053;29;20557;-73
2022/08/17 05:56:16;;;;;;;7.50;6.70;;;23.10;99.90;;;;;;4911653;29;20513;-72
2022/08/17 05:58:55;;;;;;;8.80;6.40;;;23.40;99.90;;;;;;4912136;29;20425;-72
2022/08/17 06:01:46;;;;;;;9.83;7.40;;;23.70;99.90;;;;;;4908529;29;20904;-72
2022/08/17 06:04:19;;;;;;;7.03;6.53;;;23.90;99.90;;;;;;4895175;29;20423;-73
2022/08/17 06:07:04;;;;;;;11.07;6.70;;;24.40;99.90;;;;;;4905485;29;20529;-73
2022/08/17 06:09:36;;;;;;;8.20;7.40;;;24.60;99.90;;;;;;4914346;29;21101;-73
2022/08/17 06:12:42;;;;;;;9.20;7.73;;;24.90;99.90;;;;;;4909369;29;20901;-73
2022/08/17 06:15:40;;;;;;;8.07;7.03;;;24.90;99.90;;;;;;4906864;29;20790;-73
2022/08/17 06:18:10;;;;;;;13.90;7.30;;;24.60;99.90;;;;;;4911800;29;20789;-73
2022/08/17 06:20:57;;;;;;;12.17;7.10;;;24.50;99.90;;;;;;4912931;29;20437;-72
2022/08/17 06:23:40;;;;;;;9.93;6.50;;;24.60;99.90;;;;;;4910665;29;20444;-72
2022/08/17 06:26:30;;;;;;;11.50;7.03;;;24.80;99.90;;;;;;4916801;29;20516;-73
2022/08/17 06:28:59;;;;;;;8.80;7.00;;;25.00;99.90;;;;;;4920234;29;20855;-72
2022/08/17 06:31:30;;;;;;;10.57;7.20;;;25.20;99.90;;;;;;4926651;29;20564;-72
2022/08/17 06:33:58;;;;;;;11.97;7.20;;;25.40;99.90;;;;;;4912287;29;20854;-71
2022/08/17 06:36:41;;;;;;;6.80;6.30;;;25.60;99.90;;;;;;4920244;29;20445;-72
2022/08/17 06:39:32;;;;;;;15.37;8.07;;;25.70;99.90;;;;;;4911656;29;20485;-73
2022/08/17 06:42:14;;;;;;;8.23;7.43;;;25.60;99.90;;;;;;4902706;29;20916;-73
2022/08/17 06:44:50;;;;;;;7.60;7.10;;;25.60;99.90;;;;;;4910076;29;20468;-73
2022/08/17 06:47:24;;;;;;;9.27;7.73;;;25.80;99.90;;;;;;4913197;29;20417;-73
2022/08/17 06:50:03;;;;;;;9.13;8.27;;;26.10;99.90;;;;;;4911381;29;20453;-73
2022/08/17 06:52:40;;;;;;;11.90;8.73;;;26.20;99.90;;;;;;4912897;29;20484;-73
2022/08/17 06:55:12;;;;;;;16.60;7.53;;;26.20;99.90;;;;;;4913156;29;20424;-73
2022/08/17 06:57:44;;;;;;;10.97;7.10;;;26.30;99.90;;;;;;4913296;29;20410;-73
2022/08/17 07:00:12;;;;;;;9.53;7.60;;;26.60;99.90;;;;;;4910791;29;20448;-73
2022/08/17 07:02:44;;;;;;;8.50;7.80;;;26.70;99.90;;;;;;4913012;29;20487;-73
2022/08/17 07:05:11;;;;;;;7.77;6.30;;;26.90;99.90;;;;;;4911759;29;20437;-72
2022/08/17 07:10:24;;;;;;;7.13;6.53;;;27.40;99.90;;;;;;4909348;29;20961;-70
2022/08/17 07:12:53;;;;;;;10.00;6.60;;;27.50;99.90;;;;;;4912961;29;21057;-72
2022/08/17 07:15:24;;;;;;;8.70;6.93;;;27.40;99.90;;;;;;4914891;29;20441;-71
2022/08/17 07:17:49;;;;;;;11.63;7.60;;;27.10;99.90;;;;;;4917037;29;20438;-72
2022/08/17 07:20:21;;;;;;;9.23;7.10;;;26.80;99.90;;;;;;4912682;29;20483;-72
2022/08/17 07:22:53;;;;;;;7.30;6.70;;;26.60;99.90;;;;;;4915915;29;20194;-73
2022/08/17 07:25:20;;;;;;;14.23;6.80;;;26.70;99.90;;;;;;4915133;29;20502;-72
2022/08/17 07:27:51;;;;;;;10.53;8.17;;;26.90;99.90;;;;;;4916098;29;20422;-72
2022/08/17 07:30:22;;;;;;;8.10;6.50;;;27.50;99.90;;;;;;4913967;29;20437;-72
2022/08/17 07:32:52;;;;;;;16.00;7.67;;;28.00;99.90;;;;;;4916700;29;20473;-72
2022/08/17 07:35:40;;;;;;;19.10;7.40;;;28.30;99.90;;;;;;4911683;29;20442;-72
2022/08/17 07:38:20;;;;;;;9.27;6.90;;;28.90;99.90;;;;;;4916825;29;20418;-72
2022/08/17 07:41:01;;;;;;;11.57;7.27;;;29.10;99.90;;;;;;4912647;29;20438;-73
2022/08/17 07:43:36;;;;;;;14.40;7.77;;;29.40;99.90;;;;;;4913300;29;20433;-72
2022/08/17 07:49:14;;;;;;;8.90;7.97;;;29.90;99.90;;;;;;4916395;29;20487;-71
2022/08/17 07:51:43;;;;;;;7.93;6.63;;;30.10;99.90;;;;;;4911629;29;20510;-72
2022/08/17 07:54:14;;;;;;;12.50;6.93;;;30.10;99.90;;;;;;4915846;29;20505;-73
2022/08/17 07:57:18;;;;;;;6.60;6.10;;;30.30;99.90;;;;;;4914236;29;20454;-72
2022/08/17 07:59:59;;;;;;;10.33;7.00;;;29.80;99.90;;;;;;4871967;29;20940;-72
2022/08/17 08:02:26;;;;;;;10.20;6.40;;;29.30;99.90;;;;;;4852483;29;20497;-72
2022/08/17 08:05:20;;;;;;;8.07;6.63;;;29.10;99.90;;;;;;4899233;29;20434;-73
2022/08/17 08:08:00;;;;;;;7.27;6.50;;;28.60;99.90;;;;;;4913586;29;20441;-72
2022/08/17 08:10:40;;;;;;;10.03;6.43;;;28.20;99.90;;;;;;4915792;29;20465;-72
2022/08/17 08:13:10;;;;;;;7.53;6.80;;;28.10;99.90;;;;;;4907609;29;20561;-73
2022/08/17 08:15:48;;;;;;;7.13;6.43;;;27.70;99.90;;;;;;4910684;29;20418;-72
2022/08/17 08:18:33;;;;;;;10.97;6.50;;;27.50;99.90;;;;;;4913639;29;20449;-70
2022/08/17 08:21:02;;;;;;;10.77;7.03;;;27.60;99.90;;;;;;4914944;29;20441;-73
2022/08/17 08:23:39;;;;;;;10.00;6.90;;;27.90;99.90;;;;;;4911624;29;20453;-72
2022/08/17 08:26:35;;;;;;;8.93;6.23;;;27.80;99.90;;;;;;4914161;29;20429;-73
2022/08/17 08:29:44;;;;;;;7.63;6.17;;;28.00;99.90;;;;;;4909272;29;20805;-72
2022/08/17 08:32:24;;;;;;;13.47;6.43;;;28.00;99.90;;;;;;4912672;29;20850;-73
2022/08/17 08:35:04;;;;;;;7.60;6.80;;;27.90;99.90;;;;;;4909621;29;20454;-72
2022/08/17 08:37:41;;;;;;;7.20;6.17;;;27.80;99.90;;;;;;4913277;29;20465;-72
2022/08/17 08:40:30;;;;;;;7.60;5.40;;;27.60;99.90;;;;;;4896680;29;20984;-73
2022/08/17 08:43:17;;;;;;;6.60;6.00;;;27.50;99.90;;;;;;4897775;29;20464;-72
2022/08/17 08:45:57;;;;;;;9.60;5.20;;;27.00;99.90;;;;;;4912811;29;20438;-73
2022/08/17 08:48:48;;;;;;;5.90;5.40;;;26.80;99.90;;;;;;4913635;29;20476;-73
2022/08/17 08:51:45;;;;;;;8.30;4.63;;;26.80;99.90;;;;;;4914178;29;20477;-70
2022/08/17 08:54:20;;;;;;;5.93;4.70;;;26.60;99.90;;;;;;4911594;29;20449;-73
2022/08/17 08:56:51;;;;;;;5.77;5.23;;;26.50;99.90;;;;;;4914719;29;20939;-73
2022/08/17 08:59:23;;;;;;;4.63;4.33;;;26.50;99.90;;;;;;4913067;29;20668;-72
2022/08/17 09:02:02;;;;;;;4.73;4.43;;;26.50;99.90;;;;;;4914560;29;20438;-73
2022/08/17 09:04:34;;;;;;;5.37;4.80;;;26.40;99.90;;;;;;4912369;29;20480;-73
2022/08/17 09:07:11;;;;;;;5.10;4.70;;;26.40;99.90;;;;;;4914672;29;20438;-73
2022/08/17 09:10:04;;;;;;;5.73;4.90;;;26.30;99.90;;;;;;4912785;29;20799;-72
2022/08/17 09:12:46;;;;;;;4.60;4.30;;;26.40;99.90;;;;;;4913827;29;20512;-72
2022/08/17 09:15:29;;;;;;;4.97;4.23;;;26.30;99.90;;;;;;4911041;29;20524;-73
2022/08/17 09:18:09;;;;;;;9.13;5.80;;;26.40;99.90;;;;;;4914923;29;20426;-71
2022/08/17 09:20:58;;;;;;;10.63;5.60;;;26.40;99.90;;;;;;4911890;29;20962;-70
2022/08/17 09:23:40;;;;;;;9.73;5.87;;;26.20;99.90;;;;;;4914590;29;20517;-73
2022/08/17 09:26:15;;;;;;;7.57;6.60;;;26.10;99.90;;;;;;4911890;29;20427;-72
2022/08/17 09:28:47;;;;;;;7.60;6.10;;;25.90;99.90;;;;;;4912997;29;20464;-72
2022/08/17 09:31:34;;;;;;;9.00;6.50;;;25.80;99.90;;;;;;4911725;29;20530;-72
2022/08/17 09:34:04;;;;;;;9.57;6.37;;;25.60;99.90;;;;;;4912911;29;20433;-72
2022/08/17 09:36:40;;;;;;;19.17;6.07;;;25.50;99.90;;;;;;4910039;29;20811;-73
2022/08/17 09:39:25;;;;;;;8.30;6.03;;;25.50;99.90;;;;;;4914592;29;20954;-73
2022/08/17 09:41:54;;;;;;;9.27;5.90;;;25.20;99.90;;;;;;4912149;29;20462;-72
2022/08/17 09:44:26;;;;;;;8.20;5.87;;;25.10;99.90;;;;;;4912270;29;20537;-73
2022/08/17 09:47:14;;;;;;;6.20;5.13;;;25.00;99.90;;;;;;4910378;29;20468;-72
2022/08/17 09:49:52;;;;;;;12.50;5.70;;;25.00;99.90;;;;;;4914626;29;20449;-73
2022/08/17 09:52:27;;;;;;;6.20;5.57;;;25.00;99.90;;;;;;4911780;29;20485;-72
2022/08/17 09:54:55;;;;;;;9.10;6.67;;;25.00;99.90;;;;;;4914180;29;20966;-72
2022/08/17 09:58:04;;;;;;;14.93;6.97;;;25.00;99.90;;;;;;4909545;29;20477;-73
2022/08/17 10:00:35;;;;;;;6.60;6.00;;;25.00;99.90;;;;;;4873773;29;20439;-72
2022/08/17 10:03:27;;;;;;;8.57;5.90;;;25.00;99.90;;;;;;4903657;29;20450;-73
2022/08/17 10:06:11;;;;;;;5.03;4.63;;;25.00;99.90;;;;;;4914432;29;20548;-72
2022/08/17 10:08:51;;;;;;;5.30;4.80;;;24.80;99.90;;;;;;4911312;29;20446;-73
2022/08/17 10:14:41;;;;;;;6.53;5.80;;;24.20;99.90;;;;;;4902166;29;20441;-72
2022/08/17 10:17:38;;;;;;;7.30;4.93;;;24.10;99.90;;;;;;4912201;29;20430;-73
2022/08/17 10:20:28;;;;;;;6.03;5.57;;;24.00;99.90;;;;;;4911459;29;20565;-72
2022/08/17 10:26:15;;;;;;;7.33;6.63;;;23.80;99.90;;;;;;4914011;29;20445;-69
2022/08/17 10:28:53;;;;;;;6.77;6.27;;;23.70;99.90;;;;;;4907354;29;20449;-72
2022/08/17 10:31:26;;;;;;;8.53;5.80;;;23.60;99.90;;;;;;4913013;29;20477;-73
2022/08/17 10:34:34;;;;;;;8.40;7.30;;;23.50;99.90;;;;;;4907767;29;20919;-72
2022/08/17 10:37:08;;;;;;;8.20;7.40;;;23.40;99.90;;;;;;4913101;29;20444;-72
2022/08/17 10:39:47;;;;;;;10.27;7.50;;;23.40;99.90;;;;;;4909970;29;20437;-70
2022/08/17 10:42:25;;;;;;;9.23;8.30;;;23.40;99.90;;;;;;4911948;29;21037;-72
2022/08/17 10:44:59;;;;;;;12.43;6.63;;;23.40;99.90;;;;;;4910731;29;20541;-72
2022/08/17 10:48:19;;;;;;;8.13;7.33;;;23.50;99.90;;;;;;4914662;29;20424;-72
2022/08/17 10:50:54;;;;;;;12.80;6.93;;;23.50;99.90;;;;;;4891454;29;20458;-73
2022/08/17 10:53:32;;;;;;;6.77;6.17;;;23.40;99.90;;;;;;4912419;29;20493;-73
2022/08/17 10:56:12;;;;;;;12.03;7.40;;;23.50;99.90;;;;;;4916498;29;20421;-71
2022/08/17 10:58:53;;;;;;;9.40;7.20;;;23.40;99.90;;;;;;4915658;29;21024;-70
2022/08/17 11:01:21;;;;;;;10.73;6.23;;;23.20;99.90;;;;;;4913226;29;20530;-71
2022/08/17 11:03:54;;;;;;;8.00;6.50;;;23.00;99.90;;;;;;4918836;29;20409;-71
2022/08/17 11:06:29;;;;;;;8.00;7.03;;;22.90;99.90;;;;;;4915415;29;20509;-70
2022/08/17 11:09:10;;;;;;;15.60;7.50;;;22.60;99.90;;;;;;4916723;29;20417;-69
2022/08/17 11:12:14;;;;;;;13.10;7.00;;;22.40;99.90;;;;;;4907875;29;20814;-70
2022/08/17 11:15:21;;;;;;;12.17;7.43;;;22.10;99.90;;;;;;4913224;29;20470;-70
2022/08/17 11:18:19;;;;;;;15.03;8.83;;;22.00;99.90;;;;;;4919107;29;20456;-70
2022/08/17 11:21:26;;;;;;;11.50;7.80;;;21.90;99.90;;;;;;4912550;29;20947;-71
2022/08/17 11:24:16;;;;;;;11.57;8.00;;;21.80;99.90;;;;;;4917625;29;20925;-72
2022/08/17 11:26:58;;;;;;;9.77;8.87;;;21.60;99.90;;;;;;4917051;29;20974;-71
2022/08/17 11:29:46;;;;;;;12.87;7.67;;;21.50;99.90;;;;;;4914864;29;20878;-70
2022/08/17 11:32:35;;;;;;;9.63;7.40;;;21.50;99.90;;;;;;4911646;29;21049;-70
2022/08/17 11:35:19;;;;;;;9.80;7.43;;;21.50;99.90;;;;;;4912527;29;20471;-70
2022/08/17 11:38:27;;;;;;;15.57;8.73;;;21.40;99.90;;;;;;4916542;29;20429;-71
2022/08/17 11:41:14;;;;;;;8.10;7.17;;;21.30;99.90;;;;;;4907728;29;20447;-69
2022/08/17 11:44:09;;;;;;;9.23;7.80;;;21.10;99.90;;;;;;4912170;29;20886;-70
2022/08/17 11:52:41;;;;;;;8.73;7.80;;;20.90;99.90;;;;;;4913045;29;20500;-70
2022/08/17 11:55:10;;;;;;;8.07;7.27;;;21.00;99.90;;;;;;4897511;29;20498;-70
2022/08/17 11:57:41;;;;;;;7.40;6.80;;;21.00;99.90;;;;;;4907778;29;20445;-69
2022/08/17 12:00:27;;;;;;;9.13;7.10;;;21.00;99.90;;;;;;4914954;29;20453;-70
2022/08/17 12:03:25;;;;;;;7.80;7.10;;;21.10;99.90;;;;;;4911921;29;20526;-70
2022/08/17 12:06:02;;;;;;;13.63;7.63;;;21.20;99.90;;;;;;4897670;29;20980;-70
2022/08/17 12:08:32;;;;;;;9.30;7.73;;;21.30;99.90;;;;;;4910305;29;20512;-70
2022/08/17 12:11:03;;;;;;;12.00;7.90;;;21.30;99.90;;;;;;4914971;29;20442;-70
2022/08/17 12:13:30;;;;;;;8.03;7.33;;;21.40;99.90;;;;;;4911909;29;20446;-71
2022/08/17 12:15:57;;;;;;;8.73;6.80;;;21.40;99.90;;;;;;4912139;29;20958;-69
2022/08/17 12:18:32;;;;;;;9.33;7.57;;;21.50;99.90;;;;;;4914302;29;20442;-68
2022/08/17 12:21:23;;;;;;;7.20;6.60;;;21.60;99.90;;;;;;4915515;29;20434;-70
2022/08/17 12:23:59;;;;;;;7.93;7.13;;;21.80;99.90;;;;;;4912465;29;21007;-70
2022/08/17 12:26:29;;;;;;;8.57;7.70;;;22.00;99.90;;;;;;4900234;29;20916;-71
2022/08/17 12:28:59;;;;;;;12.00;8.30;;;22.10;99.90;;;;;;4916337;29;20442;-70
2022/08/17 12:31:34;;;;;;;8.60;7.93;;;22.20;99.90;;;;;;4914932;29;20470;-71
2022/08/17 12:34:02;;;;;;;10.30;7.23;;;22.30;99.90;;;;;;4908479;29;20942;-71
2022/08/17 12:36:29;;;;;;;9.83;7.57;;;22.30;99.90;;;;;;4915452;29;20428;-70
2022/08/17 12:39:04;;;;;;;9.60;7.27;;;22.40;99.90;;;;;;4912738;29;20446;-69
2022/08/17 12:41:37;;;;;;;7.83;6.93;;;22.60;99.90;;;;;;4914853;29;20492;-71
2022/08/17 12:44:08;;;;;;;8.00;7.23;;;22.70;99.90;;;;;;4914809;29;20442;-71
2022/08/17 12:46:52;;;;;;;9.00;7.50;;;22.80;99.90;;;;;;4854800;29;20814;-70
2022/08/17 12:49:32;;;;;;;8.87;7.97;;;22.80;99.90;;;;;;4798844;29;20857;-71
2022/08/17 12:52:23;;;;;;;8.83;6.40;;;22.80;99.90;;;;;;4795065;29;20630;-72
2022/08/17 12:55:20;;;;;;;9.67;7.80;;;22.80;99.90;;;;;;4802284;29;20788;-72
2022/08/17 12:57:54;;;;;;;7.30;6.60;;;22.70;99.90;;;;;;4792575;29;21479;-72
2022/08/17 13:00:29;;;;;;;7.73;6.90;;;22.70;99.90;;;;;;4795136;29;20781;-72
2022/08/17 13:02:59;;;;;;;6.90;6.30;;;22.70;99.90;;;;;;4841977;29;20449;-69
2022/08/17 13:05:36;;;;;;;7.90;7.00;;;22.70;99.90;;;;;;4912370;29;20446;-70
2022/08/17 13:08:17;;;;;;;6.60;6.10;;;22.80;99.90;;;;;;4913486;29;20462;-70
2022/08/17 13:10:52;;;;;;;7.30;6.60;;;22.90;99.90;;;;;;4911212;29;21062;-70
2022/08/17 13:13:25;;;;;;;10.50;7.97;;;23.10;99.90;;;;;;4906997;29;20842;-69
2022/08/17 13:15:54;;;;;;;7.60;6.90;;;23.40;99.90;;;;;;4915215;29;20778;-70
2022/08/17 13:18:54;;;;;;;7.57;7.00;;;23.60;99.90;;;;;;4915093;29;20418;-70
2022/08/17 13:21:22;;;;;;;7.50;6.27;;;23.80;99.90;;;;;;4903444;29;20541;-70
2022/08/17 13:24:10;;;;;;;7.90;6.80;;;24.00;99.90;;;;;;4914344;29;20482;-71
2022/08/17 13:26:44;;;;;;;7.80;6.10;;;24.10;99.90;;;;;;4914828;29;20456;-70
2022/08/17 13:29:43;;;;;;;7.20;5.90;;;24.30;99.90;;;;;;4914872;29;20529;-71
2022/08/17 13:32:09;;;;;;;5.87;5.40;;;24.60;99.90;;;;;;4913272;29;20469;-71
2022/08/17 13:34:48;;;;;;;5.90;5.07;;;24.70;99.90;;;;;;4914290;29;20446;-70
2022/08/17 13:37:33;;;;;;;7.47;6.30;;;24.80;99.90;;;;;;4914907;29;20442;-70
2022/08/17 13:40:08;;;;;;;5.90;5.30;;;24.90;99.90;;;;;;4914498;29;20922;-71
2022/08/17 13:42:45;;;;;;;7.93;7.13;;;25.20;99.90;;;;;;4913633;29;20441;-70
2022/08/17 13:45:38;;;;;;;5.50;5.03;;;25.30;99.90;;;;;;4914168;29;20911;-71
2022/08/17 13:48:20;;;;;;;6.00;4.77;;;25.30;99.90;;;;;;4913501;29;20477;-71
2022/08/17 13:50:55;;;;;;;6.20;5.33;;;25.50;99.90;;;;;;4913808;29;20533;-72
2022/08/17 13:53:23;;;;;;;5.10;4.60;;;25.50;99.90;;;;;;4913803;29;20465;-71
2022/08/17 13:55:57;;;;;;;6.80;5.30;;;25.50;99.90;;;;;;4914811;29;20414;-71
2022/08/17 13:58:30;;;;;;;5.77;4.43;;;25.60;99.90;;;;;;4913863;29;20425;-70
2022/08/17 14:00:56;;;;;;;5.13;4.70;;;25.80;99.90;;;;;;4913405;29;20529;-70
2022/08/17 14:03:22;;;;;;;5.13;4.73;;;25.90;99.90;;;;;;4914146;29;20535;-71
2022/08/17 14:05:49;;;;;;;5.30;4.77;;;26.00;99.90;;;;;;4914320;29;20197;-71
2022/08/17 14:08:17;;;;;;;7.47;6.40;;;26.20;99.90;;;;;;4914319;29;20838;-70
2022/08/17 14:10:44;;;;;;;4.27;3.73;;;26.20;99.90;;;;;;4913580;29;20478;-70
2022/08/17 14:13:09;;;;;;;5.10;4.50;;;26.20;99.90;;;;;;4913857;29;20490;-69
2022/08/17 14:15:35;;;;;;;7.30;5.20;;;26.20;99.90;;;;;;4914153;29;20445;-71
2022/08/17 14:18:01;;;;;;;6.00;5.00;;;26.30;99.90;;;;;;4914618;29;20182;-71
2022/08/17 14:20:26;;;;;;;5.37;4.97;;;26.40;99.90;;;;;;4913780;29;20594;-69
2022/08/17 14:22:54;;;;;;;4.90;4.50;;;26.50;99.90;;;;;;4915175;29;20515;-71
2022/08/17 14:25:24;;;;;;;4.93;4.63;;;26.60;99.90;;;;;;4917740;29;20655;-71
2022/08/17 14:27:50;;;;;;;5.40;5.00;;;26.70;99.90;;;;;;4917976;29;20834;-71
2022/08/17 14:30:16;;;;;;;5.70;4.50;;;26.70;99.90;;;;;;4917560;29;20512;-70
2022/08/17 14:32:44;;;;;;;5.17;4.83;;;26.80;99.90;;;;;;4917092;29;20473;-71
2022/08/17 14:35:12;;;;;;;5.00;4.60;;;26.80;99.90;;;;;;4917656;29;20833;-71
2022/08/17 14:37:38;;;;;;;5.77;5.17;;;26.80;99.90;;;;;;4917568;29;20425;-71
2022/08/17 14:40:07;;;;;;;5.40;4.40;;;26.80;99.90;;;;;;4917755;29;20425;-71
2022/08/17 14:42:35;;;;;;;4.40;4.10;;;26.80;99.90;;;;;;4916917;29;20433;-70
2022/08/17 14:45:05;;;;;;;4.27;3.97;;;26.80;99.90;;;;;;4917785;29;20978;-71
2022/08/17 14:47:34;;;;;;;5.10;4.60;;;26.80;99.90;;;;;;4918005;29;20422;-71
2022/08/17 14:50:01;;;;;;;5.20;4.70;;;26.80;99.90;;;;;;4917070;29;20525;-71
2022/08/17 14:52:27;;;;;;;5.00;3.43;;;26.80;99.90;;;;;;4916813;29;20465;-71
2022/08/17 14:54:53;;;;;;;5.00;4.37;;;26.90;99.90;;;;;;4917633;29;21030;-71
2022/08/17 14:57:21;;;;;;;4.73;4.30;;;26.90;99.90;;;;;;4917702;29;20783;-70
2022/08/17 14:59:47;;;;;;;4.73;4.30;;;26.90;99.90;;;;;;4917297;29;20174;-70
2022/08/17 15:02:13;;;;;;;9.53;4.30;;;26.90;99.90;;;;;;4916548;29;20449;-71
2022/08/17 15:04:39;;;;;;;5.00;4.57;;;27.00;99.90;;;;;;4917101;29;20430;-71
2022/08/17 15:07:05;;;;;;;4.40;4.10;;;27.00;99.90;;;;;;4917843;29;20265;-71
2022/08/17 15:09:31;;;;;;;5.00;4.60;;;27.10;99.90;;;;;;4917055;29;20647;-71
2022/08/17 15:11:59;;;;;;;7.83;4.80;;;27.10;99.90;;;;;;4916379;29;20210;-71
2022/08/17 15:14:24;;;;;;;5.27;3.97;;;27.10;99.90;;;;;;4917029;29;20422;-71
2022/08/17 15:16:50;;;;;;;4.83;4.33;;;27.10;99.90;;;;;;4916856;29;20422;-71
2022/08/17 15:19:15;;;;;;;5.27;4.77;;;27.10;99.90;;;;;;4917010;29;20186;-71
2022/08/17 15:21:41;;;;;;;4.27;4.00;;;27.00;99.90;;;;;;4916060;29;20250;-73
2022/08/17 15:24:08;;;;;;;4.80;4.50;;;27.10;99.90;;;;;;4916752;29;20186;-72